sensor_id;sensor_type;location;lat;lon;timestamp;P1;durP1;ratioP1;P2;durP2;ratioP2
57301;SDS011;43149;50.974;18.224;2024-03-08T00:01:41;70.90;;;35.20;;
57301;SDS011;43149;50.974;18.224;2024-03-08T00:11:24;92.20;;;40.40;;
57301;SDS011;43149;50.974;18.224;2024-03-08T00:21:10;74.60;;;34.80;;
57301;SDS011;43149;50.974;18.224;2024-03-08T00:30:56;59.70;;;35.90;;
57301;SDS011;43149;50.974;18.224;2024-03-08T00:40:39;56.40;;;27.50;;
57301;SDS011;43149;50.974;18.224;2024-03-08T00:43:06;88.70;;;50.30;;
57301;SDS011;43149;50.974;18.224;2024-03-08T00:52:49;80.30;;;35.70;;
57301;SDS011;43149;50.974;18.224;2024-03-08T01:02:35;75.50;;;36.20;;
57301;SDS011;43149;50.974;18.224;2024-03-08T01:12:18;75.70;;;42.50;;
57301;SDS011;43149;50.974;18.224;2024-03-08T01:22:01;94.00;;;44.30;;
57301;SDS011;43149;50.974;18.224;2024-03-08T01:31:44;84.30;;;39.70;;
57301;SDS011;43149;50.974;18.224;2024-03-08T01:41:33;72.70;;;30.30;;
57301;SDS011;43149;50.974;18.224;2024-03-08T01:51:20;78.20;;;40.70;;
57301;SDS011;43149;50.974;18.224;2024-03-08T02:01:07;68.20;;;39.30;;
57301;SDS011;43149;50.974;18.224;2024-03-08T02:10:51;83.40;;;43.80;;
57301;SDS011;43149;50.974;18.224;2024-03-08T02:20:46;74.50;;;41.60;;
57301;SDS011;43149;50.974;18.224;2024-03-08T02:30:36;83.10;;;35.80;;
57301;SDS011;43149;50.974;18.224;2024-03-08T02:40:18;80.40;;;43.40;;
57301;SDS011;43149;50.974;18.224;2024-03-08T02:50:03;68.90;;;36.90;;
57301;SDS011;43149;50.974;18.224;2024-03-08T02:59:47;75.30;;;42.90;;
57301;SDS011;43149;50.974;18.224;2024-03-08T03:09:30;60.70;;;38.60;;
57301;SDS011;43149;50.974;18.224;2024-03-08T03:19:20;68.30;;;36.60;;
57301;SDS011;43149;50.974;18.224;2024-03-08T03:29:09;90.60;;;40.70;;
57301;SDS011;43149;50.974;18.224;2024-03-08T03:38:55;91.20;;;46.70;;
57301;SDS011;43149;50.974;18.224;2024-03-08T03:48:47;96.00;;;39.30;;
57301;SDS011;43149;50.974;18.224;2024-03-08T03:58:32;133.60;;;58.20;;
57301;SDS011;43149;50.974;18.224;2024-03-08T04:08:16;83.80;;;46.50;;
57301;SDS011;43149;50.974;18.224;2024-03-08T04:18:00;72.50;;;42.50;;
57301;SDS011;43149;50.974;18.224;2024-03-08T04:27:43;87.40;;;45.90;;
57301;SDS011;43149;50.974;18.224;2024-03-08T04:37:27;91.60;;;46.40;;
57301;SDS011;43149;50.974;18.224;2024-03-08T04:47:12;80.60;;;42.90;;
57301;SDS011;43149;50.974;18.224;2024-03-08T04:56:55;114.90;;;60.10;;
57301;SDS011;43149;50.974;18.224;2024-03-08T05:06:39;76.90;;;44.00;;
57301;SDS011;43149;50.974;18.224;2024-03-08T05:16:31;83.10;;;48.10;;
57301;SDS011;43149;50.974;18.224;2024-03-08T05:26:16;103.80;;;51.40;;
57301;SDS011;43149;50.974;18.224;2024-03-08T05:36:02;82.60;;;46.40;;
57301;SDS011;43149;50.974;18.224;2024-03-08T05:45:45;63.30;;;38.20;;
57301;SDS011;43149;50.974;18.224;2024-03-08T05:55:32;86.90;;;43.80;;
57301;SDS011;43149;50.974;18.224;2024-03-08T06:05:24;83.60;;;43.30;;
57301;SDS011;43149;50.974;18.224;2024-03-08T06:15:10;88.00;;;48.50;;
57301;SDS011;43149;50.974;18.224;2024-03-08T06:25:08;51.40;;;30.60;;
57301;SDS011;43149;50.974;18.224;2024-03-08T06:34:55;78.00;;;38.30;;
57301;SDS011;43149;50.974;18.224;2024-03-08T06:52:09;53.70;;;28.50;;
57301;SDS011;43149;50.974;18.224;2024-03-08T07:01:54;51.00;;;12.80;;
57301;SDS011;43149;50.974;18.224;2024-03-08T07:11:42;121.00;;;44.90;;
57301;SDS011;43149;50.974;18.224;2024-03-08T07:21:26;55.10;;;24.50;;
57301;SDS011;43149;50.974;18.224;2024-03-08T07:31:22;39.10;;;21.90;;
57301;SDS011;43149;50.974;18.224;2024-03-08T07:41:07;21.60;;;14.60;;
57301;SDS011;43149;50.974;18.224;2024-03-08T07:50:49;40.60;;;16.30;;
57301;SDS011;43149;50.974;18.224;2024-03-08T08:00:36;30.40;;;15.40;;
57301;SDS011;43149;50.974;18.224;2024-03-08T08:10:20;24.80;;;11.10;;
57301;SDS011;43149;50.974;18.224;2024-03-08T08:20:10;26.50;;;13.80;;
57301;SDS011;43149;50.974;18.224;2024-03-08T08:29:57;36.50;;;16.60;;
57301;SDS011;43149;50.974;18.224;2024-03-08T08:39:39;26.70;;;12.40;;
57301;SDS011;43149;50.974;18.224;2024-03-08T08:49:22;24.70;;;13.80;;
57301;SDS011;43149;50.974;18.224;2024-03-08T08:59:09;39.40;;;12.30;;
57301;SDS011;43149;50.974;18.224;2024-03-08T09:08:56;26.80;;;15.60;;
57301;SDS011;43149;50.974;18.224;2024-03-08T09:18:41;58.30;;;14.30;;
57301;SDS011;43149;50.974;18.224;2024-03-08T09:21:07;45.20;;;23.20;;
57301;SDS011;43149;50.974;18.224;2024-03-08T09:30:54;37.20;;;14.70;;
57301;SDS011;43149;50.974;18.224;2024-03-08T09:40:42;33.60;;;13.80;;
57301;SDS011;43149;50.974;18.224;2024-03-08T09:50:40;27.60;;;15.70;;
57301;SDS011;43149;50.974;18.224;2024-03-08T10:08:47;14.30;;;8.80;;
57301;SDS011;43149;50.974;18.224;2024-03-08T10:18:32;23.70;;;15.60;;
57301;SDS011;43149;50.974;18.224;2024-03-08T10:28:45;34.50;;;12.30;;
57301;SDS011;43149;50.974;18.224;2024-03-08T10:38:33;31.00;;;15.90;;
57301;SDS011;43149;50.974;18.224;2024-03-08T10:48:29;19.00;;;11.60;;
57301;SDS011;43149;50.974;18.224;2024-03-08T10:58:22;29.10;;;14.10;;
57301;SDS011;43149;50.974;18.224;2024-03-08T11:08:48;24.90;;;12.00;;
57301;SDS011;43149;50.974;18.224;2024-03-08T11:18:54;24.10;;;12.30;;
57301;SDS011;43149;50.974;18.224;2024-03-08T11:39:38;26.30;;;14.70;;
57301;SDS011;43149;50.974;18.224;2024-03-08T11:49:22;33.20;;;14.30;;
57301;SDS011;43149;50.974;18.224;2024-03-08T11:59:12;31.30;;;16.30;;
57301;SDS011;43149;50.974;18.224;2024-03-08T12:09:08;21.60;;;10.80;;
57301;SDS011;43149;50.974;18.224;2024-03-08T12:18:55;31.90;;;15.10;;
57301;SDS011;43149;50.974;18.224;2024-03-08T12:29:19;32.60;;;16.50;;
57301;SDS011;43149;50.974;18.224;2024-03-08T12:39:10;12.20;;;7.20;;
57301;SDS011;43149;50.974;18.224;2024-03-08T12:49:10;37.70;;;17.40;;
57301;SDS011;43149;50.974;18.224;2024-03-08T12:58:59;27.40;;;13.60;;
57301;SDS011;43149;50.974;18.224;2024-03-08T13:08:50;28.80;;;16.00;;
57301;SDS011;43149;50.974;18.224;2024-03-08T13:18:40;27.70;;;15.10;;
57301;SDS011;43149;50.974;18.224;2024-03-08T13:28:31;29.60;;;17.30;;
57301;SDS011;43149;50.974;18.224;2024-03-08T13:38:19;53.90;;;20.90;;
57301;SDS011;43149;50.974;18.224;2024-03-08T13:48:04;32.70;;;15.50;;
57301;SDS011;43149;50.974;18.224;2024-03-08T13:57:47;36.80;;;16.00;;
57301;SDS011;43149;50.974;18.224;2024-03-08T14:07:35;35.30;;;16.90;;
57301;SDS011;43149;50.974;18.224;2024-03-08T14:17:18;28.20;;;14.80;;
57301;SDS011;43149;50.974;18.224;2024-03-08T14:27:08;54.30;;;17.90;;
57301;SDS011;43149;50.974;18.224;2024-03-08T14:36:57;27.60;;;17.30;;
57301;SDS011;43149;50.974;18.224;2024-03-08T14:46:51;20.00;;;12.00;;
57301;SDS011;43149;50.974;18.224;2024-03-08T14:56:36;21.00;;;11.50;;
57301;SDS011;43149;50.974;18.224;2024-03-08T15:06:29;28.50;;;13.00;;
57301;SDS011;43149;50.974;18.224;2024-03-08T15:16:19;46.50;;;17.10;;
57301;SDS011;43149;50.974;18.224;2024-03-08T15:26:15;42.20;;;24.30;;
57301;SDS011;43149;50.974;18.224;2024-03-08T15:36:14;78.30;;;27.70;;
57301;SDS011;43149;50.974;18.224;2024-03-08T15:46:05;143.90;;;43.40;;
57301;SDS011;43149;50.974;18.224;2024-03-08T15:55:57;94.40;;;31.80;;
57301;SDS011;43149;50.974;18.224;2024-03-08T16:05:48;16.80;;;10.80;;
57301;SDS011;43149;50.974;18.224;2024-03-08T16:15:48;40.50;;;19.20;;
57301;SDS011;43149;50.974;18.224;2024-03-08T16:25:36;54.90;;;22.80;;
57301;SDS011;43149;50.974;18.224;2024-03-08T16:35:23;32.80;;;16.60;;
57301;SDS011;43149;50.974;18.224;2024-03-08T16:45:09;29.10;;;17.30;;
57301;SDS011;43149;50.974;18.224;2024-03-08T16:55:00;22.60;;;11.10;;
57301;SDS011;43149;50.974;18.224;2024-03-08T17:04:43;36.20;;;14.60;;
57301;SDS011;43149;50.974;18.224;2024-03-08T17:14:30;50.50;;;16.70;;
57301;SDS011;43149;50.974;18.224;2024-03-08T17:24:20;152.70;;;44.40;;
57301;SDS011;43149;50.974;18.224;2024-03-08T17:34:07;278.80;;;75.00;;
57301;SDS011;43149;50.974;18.224;2024-03-08T17:44:15;199.20;;;62.90;;
57301;SDS011;43149;50.974;18.224;2024-03-08T17:54:00;56.60;;;22.00;;
57301;SDS011;43149;50.974;18.224;2024-03-08T18:03:47;138.10;;;49.40;;
57301;SDS011;43149;50.974;18.224;2024-03-08T18:13:33;70.70;;;25.70;;
57301;SDS011;43149;50.974;18.224;2024-03-08T18:23:19;72.80;;;29.70;;
57301;SDS011;43149;50.974;18.224;2024-03-08T18:33:10;75.40;;;29.40;;
57301;SDS011;43149;50.974;18.224;2024-03-08T18:43:00;51.70;;;18.20;;
57301;SDS011;43149;50.974;18.224;2024-03-08T18:53:11;54.90;;;14.80;;
57301;SDS011;43149;50.974;18.224;2024-03-08T19:03:04;32.70;;;13.80;;
57301;SDS011;43149;50.974;18.224;2024-03-08T19:12:55;30.10;;;16.50;;
57301;SDS011;43149;50.974;18.224;2024-03-08T19:22:46;32.00;;;14.60;;
57301;SDS011;43149;50.974;18.224;2024-03-08T19:32:31;29.20;;;12.80;;
57301;SDS011;43149;50.974;18.224;2024-03-08T19:42:16;34.70;;;17.20;;
57301;SDS011;43149;50.974;18.224;2024-03-08T19:52:10;38.70;;;21.70;;
57301;SDS011;43149;50.974;18.224;2024-03-08T20:02:10;40.40;;;19.50;;
57301;SDS011;43149;50.974;18.224;2024-03-08T20:11:58;50.20;;;17.90;;
57301;SDS011;43149;50.974;18.224;2024-03-08T20:21:43;72.30;;;20.10;;
57301;SDS011;43149;50.974;18.224;2024-03-08T20:31:30;58.20;;;23.60;;
57301;SDS011;43149;50.974;18.224;2024-03-08T20:41:17;40.30;;;23.80;;
57301;SDS011;43149;50.974;18.224;2024-03-08T20:51:04;48.10;;;17.70;;
57301;SDS011;43149;50.974;18.224;2024-03-08T21:00:49;51.90;;;23.70;;
57301;SDS011;43149;50.974;18.224;2024-03-08T21:10:49;49.80;;;23.80;;
57301;SDS011;43149;50.974;18.224;2024-03-08T21:20:41;57.80;;;28.30;;
57301;SDS011;43149;50.974;18.224;2024-03-08T21:30:29;24.70;;;10.60;;
57301;SDS011;43149;50.974;18.224;2024-03-08T21:40:18;52.70;;;24.10;;
57301;SDS011;43149;50.974;18.224;2024-03-08T21:50:08;59.00;;;29.80;;
57301;SDS011;43149;50.974;18.224;2024-03-08T21:59:58;73.50;;;33.50;;
57301;SDS011;43149;50.974;18.224;2024-03-08T22:09:40;82.40;;;39.10;;
57301;SDS011;43149;50.974;18.224;2024-03-08T22:19:26;66.20;;;35.20;;
57301;SDS011;43149;50.974;18.224;2024-03-08T22:29:09;69.00;;;37.70;;
57301;SDS011;43149;50.974;18.224;2024-03-08T22:38:52;66.90;;;35.20;;
57301;SDS011;43149;50.974;18.224;2024-03-08T22:48:38;77.90;;;34.20;;
57301;SDS011;43149;50.974;18.224;2024-03-08T22:58:24;70.30;;;33.30;;
57301;SDS011;43149;50.974;18.224;2024-03-08T23:15:36;65.70;;;31.30;;
57301;SDS011;43149;50.974;18.224;2024-03-08T23:25:30;128.60;;;54.40;;
57301;SDS011;43149;50.974;18.224;2024-03-08T23:35:14;194.80;;;67.60;;
57301;SDS011;43149;50.974;18.224;2024-03-08T23:45:06;156.60;;;60.20;;
57301;SDS011;43149;50.974;18.224;2024-03-08T23:55:12;107.50;;;46.10;;
